Hauptseite
METAR-TAF:

METAR-TAF

Flughäfen :

Flughafen Sofia

Sofia, Bulgarien

Breite: 42-39N, Länge: 023-23E, Höhe: 586 m

Beobachtung

Neuester Wetterbericht von vor 18 Minuten, um 21:00 UTC
Wind 3 kt aus West/Nordwest
Temperatur 14°C
Luftfeuchtigkeit 58%
Luftdruck 1019 hPa
Sichtweite 10 km oder mehr
Durchbrochene Bewölkung in der Höhe von 5300 ft

METAR: LBSF 232100Z 30003KT 9999 BKN053 14/06 Q1019 NOSIG

Zeit: 00:18 (21:18 UTC)

Prognose

Neuester Wetterbericht von vor 4 Stunden und 18 Minuten, um 17:00 UTC
Gültige Prognose vom 23 um 18 UTC bis 24 um 18 UTC
Wind 14 kt aus West/Nordwest
Sichtweite 10 km oder mehr
Aufgelockert bewölkt in der Höhe von 5000 ft
Übergehend zu
vom 23 um 20 UTC bis 23 um 22 UTC
Wind 8 kt aus Nord
Übergehend zu
vom 24 um 13 UTC bis 24 um 15 UTC
Wind 10 kt aus Nordost

TAF: LBSF 231700Z 2318/2418 29014KT 9999 SCT050 BECMG 2320/2322 35008KT BECMG 2413/2415 05010KT

Wetterbeobachtungen und Prognosen von mehr als 4000 Flughäfen (METAR und TAF Bericht).

Die verfügbaren Stationen werden durch gelbe und rote Markierungen auf der Karte dargestellt.

Führen Sie die Maus auf sie, um den Namen der Station zu sehen.

Darauf klicken, um die Beobachtung von Wetterbeobachtungen und Prognosen zu sehen.

Um die Karte zu ändern : klicken Sie auf den grünen Tasten mit einem schwarzen Kreuz Zum Vergrößern, auf den grünen Button mit einem Gedankenstrich zu verkleinern, oder auf die grünen Pfeile für benachbarte Karten.


METAR-TAF: